Hauptseite
METAR-TAF:

METAR-TAF

Flughäfen :

El Palmar

Santa Ana, El Salvador

Breite: 13-59N, Länge: 089-34W, Höhe: 725 m

Beobachtung

Neuester Wetterbericht von vor 9 Stunden und 54 Minuten, um 23:50 UTC
Windstille
Temperatur 32°C
Luftfeuchtigkeit 63%
Luftdruck 1018 hPa
Sichtweite 10 km oder mehr
Leicht bewölkt in der Höhe von 3700 ft

METAR: MSSA 232350Z 00000KT 9999 FEW037 32/24 Q1017 A3006

Zeit: 03:44 (09:44 UTC)


TAF: fehlend

Wetterbeobachtungen und Prognosen von mehr als 4000 Flughäfen (METAR und TAF Bericht).

Die verfügbaren Stationen werden durch gelbe und rote Markierungen auf der Karte dargestellt.

Führen Sie die Maus auf sie, um den Namen der Station zu sehen.

Darauf klicken, um die Beobachtung von Wetterbeobachtungen und Prognosen zu sehen.

Um die Karte zu ändern : klicken Sie auf den grünen Tasten mit einem schwarzen Kreuz Zum Vergrößern, auf den grünen Button mit einem Gedankenstrich zu verkleinern, oder auf die grünen Pfeile für benachbarte Karten.


METAR-TAF: